createdAt,value
2018-06-20T00:01:26.680Z,90.30
2018-06-20T00:03:54.771Z,90.10
2018-06-20T00:06:22.631Z,90.20
2018-06-20T00:08:52.144Z,90.70
2018-06-20T00:13:49.532Z,90.50
2018-06-20T00:16:17.578Z,90.30
2018-06-20T00:18:45.825Z,90.30
2018-06-20T00:21:14.446Z,90.30
2018-06-20T00:23:42.349Z,90.50
2018-06-20T00:26:10.270Z,90.30
2018-06-20T00:28:38.198Z,90.50
2018-06-20T00:31:06.069Z,90.40
2018-06-20T00:33:33.918Z,90.50
2018-06-20T00:36:02.273Z,90.40
2018-06-20T00:38:30.104Z,90.30
2018-06-20T00:40:57.994Z,90.40
2018-06-20T00:43:25.855Z,90.40
2018-06-20T00:45:53.757Z,90.00
2018-06-20T00:48:21.651Z,90.10
2018-06-20T00:50:50.193Z,90.10
2018-06-20T00:55:57.014Z,90.30
2018-06-20T00:58:24.959Z,90.50
2018-06-20T01:03:20.521Z,90.60
2018-06-20T01:05:48.381Z,90.90
2018-06-20T01:08:16.271Z,90.80
2018-06-20T01:10:44.161Z,90.90
2018-06-20T01:13:11.994Z,90.50
2018-06-20T01:15:41.300Z,90.80
2018-06-20T01:18:09.182Z,90.60
2018-06-20T01:20:37.082Z,90.60
2018-06-20T01:23:05.518Z,90.70
2018-06-20T01:25:33.418Z,90.70
2018-06-20T01:28:01.340Z,90.70
2018-06-20T01:30:29.762Z,90.60
2018-06-20T01:32:57.637Z,90.90
2018-06-20T01:37:53.306Z,91.00
2018-06-20T01:40:21.167Z,91.10
2018-06-20T01:47:44.515Z,90.80
2018-06-20T01:50:12.328Z,90.90
2018-06-20T01:55:08.080Z,90.80
2018-06-20T01:57:36.510Z,90.80
2018-06-20T02:00:04.919Z,90.80
2018-06-20T02:05:00.545Z,90.90
2018-06-20T02:07:28.443Z,90.80
2018-06-20T02:09:56.314Z,90.80
2018-06-20T02:12:24.204Z,90.70
2018-06-20T02:14:52.281Z,90.80
2018-06-20T02:17:20.199Z,90.70
2018-06-20T02:19:48.066Z,90.90
2018-06-20T02:22:15.933Z,91.00
2018-06-20T02:24:43.821Z,90.90
2018-06-20T02:27:11.777Z,90.80
2018-06-20T02:29:39.640Z,90.90
2018-06-20T02:32:07.499Z,90.80
2018-06-20T02:37:03.259Z,90.70
2018-06-20T02:39:31.111Z,90.80
2018-06-20T02:41:58.946Z,90.70
2018-06-20T02:44:26.809Z,90.70
2018-06-20T02:46:54.660Z,90.80
2018-06-20T02:49:23.203Z,90.90
2018-06-20T02:51:51.072Z,90.90
2018-06-20T02:54:18.928Z,90.90
2018-06-20T02:56:46.830Z,90.80
2018-06-20T02:59:14.711Z,90.80
2018-06-20T03:01:42.621Z,90.90
2018-06-20T03:06:38.205Z,91.10
2018-06-20T03:09:13.658Z,91.20
2018-06-20T03:11:42.571Z,91.30
2018-06-20T03:16:38.162Z,91.40
2018-06-20T03:19:06.185Z,91.30
2018-06-20T03:21:34.101Z,91.30
2018-06-20T03:24:01.970Z,91.50
2018-06-20T03:26:29.863Z,91.70
2018-06-20T03:28:57.786Z,91.50
2018-06-20T03:31:25.889Z,91.50
2018-06-20T03:33:53.747Z,91.60
2018-06-20T03:36:21.619Z,92.00
2018-06-20T03:38:49.559Z,91.90
2018-06-20T03:41:17.424Z,92.30
2018-06-20T03:43:45.433Z,92.10
2018-06-20T03:46:13.315Z,92.20
2018-06-20T03:48:41.171Z,92.20
2018-06-20T03:51:09.077Z,92.20
2018-06-20T03:56:04.662Z,92.40
2018-06-20T03:58:32.506Z,92.30
2018-06-20T04:01:00.413Z,92.20
2018-06-20T04:03:28.332Z,92.10
2018-06-20T04:05:56.853Z,91.80
2018-06-20T04:08:25.559Z,91.80
2018-06-20T04:15:49.052Z,91.70
2018-06-20T04:18:17.010Z,91.70
2018-06-20T04:20:45.403Z,91.80
2018-06-20T04:23:13.461Z,91.70
2018-06-20T04:25:41.335Z,91.70
2018-06-20T04:30:37.026Z,91.50
2018-06-20T04:33:04.881Z,91.30
2018-06-20T04:35:32.748Z,91.50
2018-06-20T04:38:00.626Z,91.50
2018-06-20T04:40:29.198Z,91.40
2018-06-20T04:42:57.059Z,91.30
2018-06-20T04:45:24.909Z,91.30
2018-06-20T04:47:52.780Z,91.20
2018-06-20T04:52:48.923Z,91.30
2018-06-20T04:55:16.787Z,91.30
2018-06-20T05:00:12.391Z,91.40
2018-06-20T05:02:40.275Z,91.40
2018-06-20T05:05:08.170Z,91.40
2018-06-20T05:07:36.075Z,91.40
2018-06-20T05:10:04.573Z,91.70
2018-06-20T05:15:00.406Z,92.00
2018-06-20T05:17:28.251Z,92.00
2018-06-20T05:19:56.140Z,92.10
2018-06-20T05:24:52.792Z,92.50
2018-06-20T05:29:48.902Z,92.10
2018-06-20T05:32:16.782Z,92.00
2018-06-20T05:34:44.896Z,92.00
2018-06-20T05:37:13.061Z,91.90
2018-06-20T05:42:08.794Z,91.80
2018-06-20T05:47:04.450Z,91.70
2018-06-20T05:52:00.922Z,91.80
2018-06-20T05:54:28.830Z,91.60
2018-06-20T05:56:56.747Z,91.60
2018-06-20T05:59:24.883Z,91.50
2018-06-20T06:01:52.759Z,91.30
2018-06-20T06:04:21.648Z,91.50
2018-06-20T06:06:49.800Z,91.50
2018-06-20T06:11:45.681Z,91.50
2018-06-20T06:14:14.851Z,91.50
2018-06-20T06:16:43.423Z,91.60
2018-06-20T06:19:12.037Z,91.50
2018-06-20T06:21:40.071Z,91.50
2018-06-20T06:24:08.177Z,91.70
2018-06-20T06:26:36.108Z,91.60
2018-06-20T06:29:04.094Z,91.80
2018-06-20T06:38:55.351Z,91.50
2018-06-20T06:41:23.236Z,91.40
2018-06-20T06:43:51.123Z,91.60
2018-06-20T06:46:19.050Z,91.80
2018-06-20T06:48:46.943Z,91.80
2018-06-20T06:51:15.304Z,91.50
2018-06-20T06:53:43.209Z,91.10
2018-06-20T06:56:11.121Z,91.00
2018-06-20T06:58:39.012Z,90.50
2018-06-20T07:01:06.967Z,90.30
2018-06-20T07:06:03.453Z,88.90
2018-06-20T07:08:31.510Z,88.70
2018-06-20T07:10:59.437Z,89.10
2018-06-20T07:13:27.327Z,89.00
2018-06-20T07:15:55.254Z,89.00
2018-06-20T07:18:23.179Z,88.60
2018-06-20T07:20:51.082Z,88.70
2018-06-20T07:23:19.092Z,88.30
2018-06-20T07:25:47.000Z,88.50
2018-06-20T07:28:14.915Z,88.50
2018-06-20T07:30:43.025Z,89.00
2018-06-20T07:38:06.743Z,88.10
2018-06-20T07:40:34.640Z,88.40
2018-06-20T07:43:03.505Z,88.60
2018-06-20T07:45:32.159Z,88.70
2018-06-20T07:48:00.248Z,89.30
2018-06-20T07:52:55.943Z,88.30
2018-06-20T07:55:23.968Z,87.70
2018-06-20T07:57:51.880Z,87.70
2018-06-20T08:00:25.801Z,87.50
2018-06-20T08:03:10.573Z,87.80
2018-06-20T08:05:44.090Z,88.10
2018-06-20T08:08:18.591Z,87.20
2018-06-20T08:10:52.190Z,87.40
2018-06-20T08:13:26.629Z,88.10
2018-06-20T08:18:34.392Z,88.20
2018-06-20T08:21:02.323Z,86.50
2018-06-20T08:23:30.862Z,85.70
2018-06-20T08:25:59.199Z,86.70
2018-06-20T08:28:27.220Z,86.00
2018-06-20T08:30:55.146Z,86.40
2018-06-20T08:33:23.293Z,85.90
2018-06-20T08:38:19.843Z,85.40
2018-06-20T08:40:47.982Z,85.00
2018-06-20T08:43:16.206Z,83.00
2018-06-20T08:45:44.361Z,83.10
2018-06-20T08:48:12.269Z,83.10
2018-06-20T08:50:40.263Z,83.40
2018-06-20T08:53:08.296Z,83.80
2018-06-20T08:55:36.218Z,83.60
2018-06-20T08:58:04.161Z,84.40
2018-06-20T09:00:38.083Z,83.30
2018-06-20T09:03:06.772Z,83.40
2018-06-20T09:05:40.627Z,82.70
2018-06-20T09:08:14.254Z,83.90
2018-06-20T09:10:47.780Z,81.90
2018-06-20T09:13:21.371Z,78.80
2018-06-20T09:15:55.720Z,80.10
2018-06-20T09:20:57.900Z,81.90
2018-06-20T09:28:21.414Z,84.50
2018-06-20T09:33:17.144Z,80.50
2018-06-20T09:35:45.044Z,79.30
2018-06-20T09:38:13.087Z,79.00
2018-06-20T09:40:42.290Z,77.00
2018-06-20T09:48:06.421Z,79.00
2018-06-20T09:50:40.069Z,79.10
2018-06-20T09:53:08.196Z,79.00
2018-06-20T09:55:36.082Z,79.80
2018-06-20T09:58:04.146Z,79.50
2018-06-20T10:00:37.679Z,79.30
2018-06-20T10:03:11.210Z,79.70
2018-06-20T10:08:19.902Z,77.70
2018-06-20T10:10:53.533Z,79.30
2018-06-20T10:13:25.746Z,78.30
2018-06-20T10:15:53.659Z,79.30
2018-06-20T10:23:17.806Z,77.70
2018-06-20T10:25:45.889Z,78.50
2018-06-20T10:33:09.314Z,78.60
2018-06-20T10:35:37.213Z,79.30
2018-06-20T10:38:05.126Z,76.90
2018-06-20T10:45:34.154Z,76.20
2018-06-20T10:48:09.684Z,75.80
2018-06-20T10:50:37.826Z,77.20
2018-06-20T10:53:06.342Z,79.60
2018-06-20T10:58:12.764Z,79.40
2018-06-20T11:00:47.086Z,76.90
2018-06-20T11:08:28.181Z,76.30
2018-06-20T11:11:03.083Z,74.30
2018-06-20T11:13:30.991Z,72.60
2018-06-20T11:15:58.995Z,73.40
2018-06-20T11:18:27.048Z,76.00
2018-06-20T11:20:56.083Z,71.50
2018-06-20T11:23:24.017Z,67.80
2018-06-20T11:25:52.336Z,69.50
2018-06-20T11:30:48.007Z,67.80
2018-06-20T11:33:17.008Z,66.20
2018-06-20T11:35:44.894Z,66.10
2018-06-20T11:38:12.825Z,66.90
2018-06-20T11:40:40.862Z,65.90
2018-06-20T11:43:08.826Z,65.90
2018-06-20T11:45:43.183Z,65.00
2018-06-20T11:48:11.103Z,64.30
2018-06-20T11:50:39.040Z,66.50
2018-06-20T11:53:08.144Z,65.30
2018-06-20T11:55:37.295Z,64.60
2018-06-20T12:00:45.919Z,65.60
2018-06-20T12:03:19.724Z,65.20
2018-06-20T12:08:27.723Z,63.90
2018-06-20T12:11:01.262Z,61.30
2018-06-20T12:18:58.571Z,64.30
2018-06-20T12:21:32.135Z,65.10
2018-06-20T12:24:06.085Z,64.60
2018-06-20T12:26:39.570Z,63.10
2018-06-20T12:31:49.755Z,61.90
2018-06-20T12:34:23.452Z,62.60
2018-06-20T12:36:57.137Z,63.50
2018-06-20T12:39:24.527Z,61.60
2018-06-20T12:44:00.526Z,63.20
2018-06-20T12:47:34.596Z,61.20
2018-06-20T12:50:04.473Z,61.20
2018-06-20T12:52:32.433Z,61.00
2018-06-20T12:57:28.184Z,63.10
2018-06-20T12:59:56.853Z,60.40
2018-06-20T13:02:24.770Z,60.00
2018-06-20T13:07:20.471Z,60.10
2018-06-20T13:09:48.356Z,61.40
2018-06-20T13:17:12.594Z,61.90
2018-06-20T13:19:40.635Z,61.60
2018-06-20T13:22:08.546Z,61.20
2018-06-20T13:24:36.476Z,60.90
2018-06-20T13:27:04.479Z,60.30
2018-06-20T13:29:32.429Z,62.00
2018-06-20T13:37:14.139Z,63.50
2018-06-20T13:39:47.825Z,63.50
2018-06-20T13:42:21.410Z,64.00
2018-06-20T13:44:49.510Z,63.10
2018-06-20T13:52:23.495Z,58.90
2018-06-20T13:54:51.358Z,59.50
2018-06-20T13:57:19.281Z,60.00
2018-06-20T13:59:47.357Z,59.90
2018-06-20T14:02:15.355Z,60.10
2018-06-20T14:07:11.223Z,59.60
2018-06-20T14:09:39.165Z,60.10
2018-06-20T14:14:35.015Z,61.30
2018-06-20T14:17:03.023Z,61.70
2018-06-20T14:19:36.418Z,60.50
2018-06-20T14:22:04.289Z,59.80
2018-06-20T14:24:32.198Z,61.00
2018-06-20T14:39:51.154Z,61.40
2018-06-20T14:42:25.719Z,64.20
2018-06-20T14:44:59.898Z,64.10
2018-06-20T14:47:27.843Z,63.40
2018-06-20T14:49:55.758Z,61.00
2018-06-20T14:52:23.678Z,62.50
2018-06-20T14:57:19.445Z,64.70
2018-06-20T14:59:47.326Z,64.40
2018-06-20T15:02:15.366Z,62.40
2018-06-20T15:07:11.417Z,58.20
2018-06-20T15:09:40.288Z,58.80
2018-06-20T15:14:37.418Z,59.10
2018-06-20T15:17:11.708Z,59.70
2018-06-20T15:19:39.671Z,60.40
2018-06-20T15:22:07.730Z,58.10
2018-06-20T15:27:08.916Z,57.30
2018-06-20T15:29:42.504Z,56.30
2018-06-20T15:32:16.104Z,56.20
2018-06-20T15:34:49.632Z,56.90
2018-06-20T15:37:23.375Z,59.10
2018-06-20T15:44:46.872Z,60.40
2018-06-20T15:47:14.756Z,58.40
2018-06-20T15:52:10.526Z,59.40
2018-06-20T15:54:38.451Z,59.00
2018-06-20T15:57:06.378Z,58.00
2018-06-20T15:59:34.318Z,58.70
2018-06-20T16:02:02.388Z,58.00
2018-06-20T16:04:30.440Z,57.70
2018-06-20T16:14:28.312Z,59.50
2018-06-20T16:16:56.520Z,59.50
2018-06-20T16:19:30.806Z,56.70
2018-06-20T16:22:04.387Z,56.30
2018-06-20T16:24:37.874Z,57.30
2018-06-20T16:27:12.364Z,56.40
2018-06-20T16:29:46.923Z,57.90
2018-06-20T16:32:14.876Z,57.80
2018-06-20T16:34:42.792Z,58.90
2018-06-20T16:37:10.806Z,55.70
2018-06-20T16:42:07.074Z,56.90
2018-06-20T16:44:34.974Z,57.10
2018-06-20T16:47:02.893Z,55.40
2018-06-20T16:49:30.851Z,55.60
2018-06-20T16:51:58.761Z,57.30
2018-06-20T16:54:26.699Z,56.50
2018-06-20T16:59:22.386Z,57.80
2018-06-20T17:01:56.675Z,57.60
2018-06-20T17:04:24.578Z,58.30
2018-06-20T17:06:52.492Z,58.40
2018-06-20T17:09:21.403Z,57.00
2018-06-20T17:11:54.894Z,57.60
2018-06-20T17:14:29.345Z,56.50
2018-06-20T17:17:03.510Z,56.30
2018-06-20T17:19:37.034Z,56.30
2018-06-20T17:22:10.647Z,56.90
2018-06-20T17:24:44.202Z,58.20
2018-06-20T17:27:12.727Z,59.60
2018-06-20T17:32:08.523Z,60.10
2018-06-20T17:37:04.135Z,59.90
2018-06-20T17:39:32.076Z,60.40
2018-06-20T17:42:00.018Z,60.20
2018-06-20T17:44:28.044Z,59.80
2018-06-20T17:49:23.724Z,59.30
2018-06-20T17:51:51.642Z,59.50
2018-06-20T17:54:19.543Z,60.20
2018-06-20T17:56:47.563Z,60.00
2018-06-20T17:59:15.485Z,59.60
2018-06-20T18:04:15.878Z,60.00
2018-06-20T18:09:23.835Z,62.40
2018-06-20T18:14:45.650Z,64.10
2018-06-20T18:17:13.592Z,64.60
2018-06-20T18:19:41.554Z,64.40
2018-06-20T18:22:09.453Z,63.50
2018-06-20T18:24:37.380Z,63.70
2018-06-20T18:27:05.418Z,64.40
2018-06-20T18:29:33.345Z,64.20
2018-06-20T18:32:01.380Z,64.10
2018-06-20T18:34:29.197Z,63.70
2018-06-20T18:36:57.928Z,63.80
2018-06-20T18:41:53.948Z,64.70
2018-06-20T18:54:13.427Z,66.20
2018-06-20T18:56:41.536Z,66.10
2018-06-20T18:59:15.123Z,66.50
2018-06-20T19:01:49.492Z,69.10
2018-06-20T19:04:23.099Z,72.20
2018-06-20T19:09:24.955Z,72.50
2018-06-20T19:11:52.878Z,71.80
2018-06-20T19:14:21.065Z,71.70
2018-06-20T19:16:50.067Z,72.80
2018-06-20T19:19:18.665Z,74.70
2018-06-20T19:21:46.609Z,74.50
2018-06-20T19:24:15.639Z,74.90
2018-06-20T19:26:43.659Z,74.70
2018-06-20T19:29:12.392Z,74.70
2018-06-20T19:31:40.339Z,74.80
2018-06-20T19:34:08.796Z,74.10
2018-06-20T19:36:37.377Z,73.80
2018-06-20T19:39:11.919Z,75.30
2018-06-20T19:41:40.767Z,75.60
2018-06-20T19:44:45.589Z,75.00
2018-06-20T19:47:14.009Z,74.20
2018-06-20T19:49:42.465Z,74.20
2018-06-20T19:52:11.059Z,74.10
2018-06-20T19:54:40.044Z,74.40
2018-06-20T19:59:37.231Z,75.20
2018-06-20T20:02:06.110Z,76.10
2018-06-20T20:04:34.020Z,77.20
2018-06-20T20:07:01.924Z,77.20
2018-06-20T20:09:30.480Z,77.40
2018-06-20T20:11:58.513Z,78.70
2018-06-20T20:14:26.555Z,80.20
2018-06-20T20:16:54.624Z,80.10
2018-06-20T20:19:23.710Z,80.30
2018-06-20T20:24:19.575Z,80.90
2018-06-20T20:26:47.590Z,81.30
2018-06-20T20:29:15.478Z,81.40
2018-06-20T20:31:43.419Z,81.70
2018-06-20T20:34:11.993Z,81.90
2018-06-20T20:44:04.774Z,82.30
2018-06-20T20:46:33.412Z,82.60
2018-06-20T20:53:56.939Z,83.20
2018-06-20T20:56:25.692Z,83.60
2018-06-20T21:01:21.358Z,85.20
2018-06-20T21:08:45.339Z,85.10
2018-06-20T21:11:13.286Z,84.70
2018-06-20T21:13:41.861Z,84.40
2018-06-20T21:16:10.344Z,84.90
2018-06-20T21:18:38.292Z,85.40
2018-06-20T21:21:06.262Z,85.20
2018-06-20T21:23:34.182Z,85.40
2018-06-20T21:26:02.283Z,85.70
2018-06-20T21:30:58.535Z,85.70
2018-06-20T21:33:26.557Z,85.70
2018-06-20T21:35:54.456Z,85.80
2018-06-20T21:40:50.313Z,86.60
2018-06-20T21:43:18.527Z,86.60
2018-06-20T21:45:47.061Z,86.50
2018-06-20T21:50:42.713Z,87.20
2018-06-20T21:53:11.134Z,86.80
2018-06-20T21:55:39.043Z,86.90
2018-06-20T21:58:06.907Z,86.80
2018-06-20T22:03:02.730Z,87.50
2018-06-20T22:05:30.649Z,88.00
2018-06-20T22:07:58.547Z,88.10
2018-06-20T22:10:26.462Z,87.70
2018-06-20T22:15:22.112Z,88.10
2018-06-20T22:17:50.002Z,88.00
2018-06-20T22:20:17.860Z,88.30
2018-06-20T22:22:45.706Z,88.40
2018-06-20T22:25:13.928Z,88.40
2018-06-20T22:27:41.835Z,88.80
2018-06-20T22:30:09.741Z,89.20
2018-06-20T22:32:37.682Z,89.30
2018-06-20T22:40:01.374Z,89.00
2018-06-20T22:42:29.278Z,89.00
2018-06-20T22:44:58.018Z,88.60
2018-06-20T22:49:53.761Z,89.00
2018-06-20T22:52:22.441Z,88.90
2018-06-20T22:57:18.021Z,89.10
2018-06-20T22:59:45.892Z,89.00
2018-06-20T23:02:13.784Z,89.60
2018-06-20T23:07:09.432Z,90.20
2018-06-20T23:09:37.931Z,90.10
2018-06-20T23:12:06.804Z,90.20
2018-06-20T23:14:34.791Z,90.10
2018-06-20T23:17:02.676Z,90.00
2018-06-20T23:19:31.219Z,90.30
2018-06-20T23:24:26.851Z,90.30
2018-06-20T23:26:54.719Z,90.10
2018-06-20T23:29:22.615Z,90.30
2018-06-20T23:31:50.548Z,90.20
2018-06-20T23:34:18.909Z,90.20
2018-06-20T23:36:46.800Z,90.00
2018-06-20T23:41:42.479Z,90.20
2018-06-20T23:44:10.375Z,90.30
2018-06-20T23:46:38.276Z,90.40
2018-06-20T23:49:06.127Z,90.60
2018-06-20T23:51:34.006Z,90.50
2018-06-20T23:54:02.109Z,90.50
2018-06-20T23:56:30.826Z,90.40
2018-06-20T23:58:58.668Z,90.30
